aviador You're here:

KMIC Decoded Metar

MNPLS/CRYSTAL in MN, USA
Report Time2018-02-25 10:53:00
UTC Time2018-02-25 11:17:53
Flight Rules mvfr MVFR
Wind240° at 10 kt
W.Decomp.*RWY 24: 10.0 kt HW 0.3 kt LCW
RWY 32: 1.4 kt HW 9.9 kt LCW
W.Rank240° ranks 27
Current wind is above 240° avg. (7.6)
Visibility9999 m
Phenomena:N/A
Clouds:Overcast 011 Hf
Expected CloudBase > 1,200 ft AGL from Temp-Dew spread
Ceiling1,100 ft
Temp-8°C (ISA -21)
Dew Point-11°C (79% RH)
AAT-14.7°C
QNH1001 hPa
Density Alt-1,319 ft
Elevation869 ft
Report Wrong Elevation
Raw Report
METAR KMIC 251053Z AUTO 24010KT 9SM OVC011 M08/M11 A2956 RMK AO2 SLP024
T10831106 TSNO=

Extra information for KMIC:More info

Metar Taf Metar & Taf Last 4 Metars F.Rules Stats Wind Profile Meteogram Temp Stats Airport Information Weather charts Add Link Nearby VenuesMetar ALERT Operation Metar Decoded Social comments

AIRNAV info for KMIC